Terminal Aerodrome Forecast
Issued by NWS Wilmington, NC

Current Version | Previous Version | Graphics & Text | Print | Product List | Glossary Off
Versions: 1 2 3 4 5 6 7 8 9 10 11 12 13 14 15 16 17 18 19 20 21 22 23 24 25

000
FTUS42 KILM 251408 AAA
TAFFLO
TAF AMD
KFLO 251408Z 2514/2612 00000KT 6SM BR SCT040
     FM251500 08006KT P6SM VCSH BKN020 BKN050
     FM260100 07005KT P6SM SCT010 BKN025=

USA.gov is the U.S. government's official web portal to all federal, state and local government web resources and services.